Time;durP1;ratioP1;P1;durP2;ratioP2;P2;SDS_P1;SDS_P2;PMS_P1;PMS_P2;Temp;Humidity;BMP_temperature;BMP_pressure;BME280_temperature;BME280_humidity;BME280_pressure;Samples;Min_cycle;Max_cycle;Signal;HPM_P1;HPM_P2
2022/07/21 02:48:11;;;;;;;8.70;6.13;;;20.80;99.90;;;;;;5017923;23;88762;-80
2022/07/21 02:50:40;;;;;;;9.45;6.15;;;20.90;99.90;;;;;;4901140;28;87169;-81
2022/07/21 02:53:13;;;;;;;7.32;5.65;;;21.00;99.90;;;;;;4902393;28;88158;-80
2022/07/21 02:55:39;;;;;;;7.38;5.05;;;20.90;99.90;;;;;;4903855;28;86885;-79
2022/07/21 02:58:23;;;;;;;9.57;5.82;;;20.80;99.90;;;;;;4900604;28;87530;-80
2022/07/21 03:00:58;;;;;;;9.68;6.05;;;20.90;99.90;;;;;;4898495;28;86983;-80
2022/07/21 03:03:26;;;;;;;8.23;5.80;;;20.90;99.90;;;;;;4902728;28;87607;-79
2022/07/21 03:05:53;;;;;;;8.75;5.93;;;20.90;99.90;;;;;;4898781;28;87061;-79
2022/07/21 03:08:19;;;;;;;8.95;5.07;;;20.80;99.90;;;;;;4899207;28;87774;-79
2022/07/21 03:10:46;;;;;;;10.73;5.90;;;20.70;99.90;;;;;;4900468;28;87477;-79
2022/07/21 03:13:12;;;;;;;9.88;6.28;;;20.80;99.90;;;;;;4884215;28;86908;-80
2022/07/21 03:15:39;;;;;;;8.27;5.90;;;20.70;99.90;;;;;;4884073;28;87228;-79
2022/07/21 03:18:05;;;;;;;10.63;5.88;;;20.70;99.90;;;;;;4895670;28;87898;-80
2022/07/21 03:20:33;;;;;;;7.72;5.68;;;20.80;99.90;;;;;;4900753;28;89252;-81
2022/07/21 03:22:59;;;;;;;8.68;5.25;;;20.90;99.90;;;;;;4904231;28;87078;-79
2022/07/21 03:25:25;;;;;;;7.20;5.10;;;20.90;99.90;;;;;;4902890;28;87448;-79
2022/07/21 03:27:51;;;;;;;10.95;5.85;;;21.00;99.90;;;;;;4903078;28;87442;-81
2022/07/21 03:30:17;;;;;;;10.32;5.90;;;21.10;99.90;;;;;;4902214;28;88254;-79
2022/07/21 03:32:44;;;;;;;9.20;6.13;;;21.10;99.90;;;;;;4901798;28;86590;-79
2022/07/21 03:35:11;;;;;;;8.63;5.65;;;21.10;99.90;;;;;;4903233;28;86312;-79
2022/07/21 03:37:46;;;;;;;10.90;5.88;;;21.00;99.90;;;;;;4902439;28;87394;-79
2022/07/21 03:40:14;;;;;;;9.30;5.85;;;20.90;99.90;;;;;;4900878;28;87799;-80
2022/07/21 03:42:39;;;;;;;8.43;6.25;;;21.00;99.90;;;;;;4902670;28;87971;-79
2022/07/21 03:45:07;;;;;;;9.73;6.65;;;21.00;99.90;;;;;;4898779;28;87100;-80
2022/07/21 03:47:33;;;;;;;8.23;5.55;;;21.10;99.90;;;;;;4902045;28;87569;-80
2022/07/21 03:49:58;;;;;;;10.23;5.70;;;21.20;99.90;;;;;;4902235;28;87052;-79
2022/07/21 03:52:24;;;;;;;10.52;6.22;;;21.20;99.90;;;;;;4902498;28;87037;-80
2022/07/21 03:54:50;;;;;;;7.97;5.35;;;21.30;99.90;;;;;;4898226;28;86940;-81
2022/07/21 03:57:15;;;;;;;7.93;5.78;;;21.30;99.90;;;;;;4900429;28;87341;-80
2022/07/21 03:59:41;;;;;;;8.80;5.72;;;21.30;99.90;;;;;;4902628;28;86645;-80
2022/07/21 04:02:07;;;;;;;10.30;6.47;;;21.30;99.90;;;;;;4895161;28;87267;-79
2022/07/21 04:04:32;;;;;;;9.88;6.97;;;21.20;99.90;;;;;;4915981;28;87512;-80
2022/07/21 04:06:58;;;;;;;8.48;6.18;;;21.10;99.90;;;;;;4913880;28;87901;-79
2022/07/21 04:09:24;;;;;;;12.25;6.63;;;21.10;99.90;;;;;;4902047;28;87120;-80
2022/07/21 04:11:49;;;;;;;8.55;5.60;;;21.10;99.90;;;;;;4917108;28;87011;-80
2022/07/21 04:14:15;;;;;;;9.30;6.38;;;21.00;99.90;;;;;;4905016;28;87012;-80
2022/07/21 04:16:41;;;;;;;8.82;6.32;;;21.00;99.90;;;;;;4883579;28;87995;-80
2022/07/21 04:19:06;;;;;;;8.45;5.32;;;21.10;99.90;;;;;;4898979;28;87324;-81
2022/07/21 04:21:32;;;;;;;8.95;5.53;;;21.20;99.90;;;;;;4902496;28;86990;-79
2022/07/21 04:23:58;;;;;;;13.82;6.72;;;21.30;99.90;;;;;;4902998;28;86381;-80
2022/07/21 04:26:24;;;;;;;8.82;6.38;;;21.10;99.90;;;;;;4896923;28;88896;-79
2022/07/21 04:28:50;;;;;;;10.35;5.95;;;21.00;99.90;;;;;;4883103;28;87880;-80
2022/07/21 04:31:15;;;;;;;10.07;5.97;;;21.10;99.90;;;;;;4882696;28;88399;-80
2022/07/21 04:33:41;;;;;;;9.38;5.47;;;21.20;99.90;;;;;;4883254;28;86960;-79
2022/07/21 04:36:07;;;;;;;10.23;6.15;;;21.40;99.90;;;;;;4890506;28;87454;-80
2022/07/21 04:38:33;;;;;;;10.63;6.45;;;21.30;99.90;;;;;;4901767;28;87911;-79
2022/07/21 04:40:59;;;;;;;9.68;6.05;;;21.20;99.90;;;;;;4883073;28;86992;-79
2022/07/21 04:43:24;;;;;;;9.70;6.70;;;21.10;99.90;;;;;;4885620;28;86950;-79
2022/07/21 04:45:50;;;;;;;12.02;5.60;;;21.10;99.90;;;;;;4885620;28;87191;-79
2022/07/21 04:48:16;;;;;;;7.47;5.28;;;21.10;99.90;;;;;;4896206;28;87480;-79
2022/07/21 04:50:42;;;;;;;9.57;6.05;;;21.30;99.90;;;;;;4904092;28;86923;-79
2022/07/21 04:53:09;;;;;;;9.40;5.60;;;21.70;99.90;;;;;;4902252;28;87471;-79
2022/07/21 04:55:35;;;;;;;9.65;6.07;;;21.80;99.90;;;;;;4900214;28;90993;-79
2022/07/21 04:58:00;;;;;;;14.75;6.30;;;21.80;99.90;;;;;;4904064;28;87126;-79
2022/07/21 05:00:26;;;;;;;7.72;5.93;;;21.70;99.90;;;;;;4903256;28;87404;-80
2022/07/21 05:02:53;;;;;;;12.30;6.93;;;21.60;99.90;;;;;;4901996;28;86890;-79
2022/07/21 05:05:19;;;;;;;11.90;6.53;;;21.60;99.90;;;;;;4888698;28;87280;-79
2022/07/21 05:07:45;;;;;;;12.13;7.20;;;21.60;99.90;;;;;;4897026;28;87642;-79
2022/07/21 05:10:14;;;;;;;11.52;7.25;;;21.50;99.90;;;;;;4906335;28;87101;-79
2022/07/21 05:12:40;;;;;;;9.38;6.40;;;21.50;99.90;;;;;;4900574;28;86351;-81
2022/07/21 05:15:07;;;;;;;9.38;6.78;;;21.50;99.90;;;;;;4898864;28;87384;-79
2022/07/21 05:17:34;;;;;;;10.20;7.30;;;21.50;99.90;;;;;;4900309;28;88842;-79
2022/07/21 05:20:00;;;;;;;15.02;7.65;;;21.30;99.90;;;;;;4901408;28;88067;-79
2022/07/21 05:22:26;;;;;;;11.20;7.07;;;21.20;99.90;;;;;;4901381;28;87334;-79
2022/07/21 05:24:52;;;;;;;12.52;6.97;;;21.30;99.90;;;;;;4900236;28;87991;-79
2022/07/21 05:27:17;;;;;;;12.00;6.60;;;21.40;99.90;;;;;;4899594;28;87836;-79
2022/07/21 05:29:43;;;;;;;11.82;7.35;;;21.40;99.90;;;;;;4901404;28;87025;-79
2022/07/21 05:32:09;;;;;;;11.63;6.68;;;21.50;99.90;;;;;;4901098;28;86834;-79
2022/07/21 05:34:34;;;;;;;12.75;7.47;;;21.60;99.90;;;;;;4900638;28;87042;-79
2022/07/21 05:37:00;;;;;;;12.40;7.45;;;21.60;99.90;;;;;;4901708;28;86767;-79
2022/07/21 05:39:26;;;;;;;10.77;7.00;;;21.50;99.90;;;;;;4900189;28;87126;-79
2022/07/21 05:41:51;;;;;;;10.73;6.25;;;21.40;99.90;;;;;;4900406;28;87749;-79
2022/07/21 05:44:17;;;;;;;10.73;7.22;;;21.50;99.90;;;;;;4902213;28;88479;-79
2022/07/21 05:46:43;;;;;;;14.35;8.13;;;21.60;99.90;;;;;;4901004;28;87315;-79
2022/07/21 05:49:08;;;;;;;12.40;7.05;;;21.70;99.90;;;;;;4902267;28;86998;-79
2022/07/21 05:51:34;;;;;;;11.23;6.57;;;21.70;99.90;;;;;;4901184;28;87096;-79
2022/07/21 05:54:00;;;;;;;9.65;6.57;;;21.80;99.90;;;;;;4901745;28;87312;-79
2022/07/21 05:56:25;;;;;;;12.27;7.47;;;21.80;99.90;;;;;;4901481;28;87049;-79
2022/07/21 05:58:51;;;;;;;10.02;6.63;;;21.90;99.90;;;;;;4901212;28;87045;-79
2022/07/21 06:01:17;;;;;;;11.45;6.95;;;22.00;99.90;;;;;;4891935;28;86303;-79
2022/07/21 06:03:44;;;;;;;12.40;8.10;;;22.00;99.90;;;;;;4892760;28;87210;-79
2022/07/21 06:06:12;;;;;;;10.13;6.95;;;21.90;99.90;;;;;;4891685;28;87032;-79
2022/07/21 06:08:39;;;;;;;11.68;7.40;;;22.10;99.90;;;;;;4897793;28;88110;-77
2022/07/21 06:11:06;;;;;;;14.20;8.13;;;22.20;99.90;;;;;;4907964;28;86966;-78
2022/07/21 06:13:32;;;;;;;11.07;6.80;;;22.20;99.90;;;;;;4895633;28;87414;-79
2022/07/21 06:15:58;;;;;;;9.85;6.93;;;22.50;99.90;;;;;;4898713;28;88632;-79
2022/07/21 06:18:24;;;;;;;12.10;7.13;;;22.40;99.90;;;;;;4898240;28;87287;-77
2022/07/21 06:20:49;;;;;;;9.77;7.18;;;22.40;99.90;;;;;;4897115;28;87109;-77
2022/07/21 06:23:15;;;;;;;14.35;8.52;;;22.50;99.90;;;;;;4898570;28;87291;-77
2022/07/21 06:25:41;;;;;;;13.00;7.80;;;22.40;99.90;;;;;;4897235;28;86316;-76
2022/07/21 06:28:07;;;;;;;10.13;7.63;;;22.40;99.90;;;;;;4883157;28;87054;-77
2022/07/21 06:30:33;;;;;;;11.38;6.80;;;22.30;99.90;;;;;;4891212;28;87081;-76
2022/07/21 06:32:59;;;;;;;14.85;8.85;;;22.30;99.90;;;;;;4899351;28;89732;-76
2022/07/21 06:35:25;;;;;;;15.85;7.95;;;22.20;99.90;;;;;;4890371;28;87874;-76
2022/07/21 06:37:50;;;;;;;12.63;8.02;;;22.20;99.90;;;;;;4887650;28;87519;-77
2022/07/21 06:40:16;;;;;;;12.45;7.28;;;22.10;99.90;;;;;;4894235;28;87044;-76
2022/07/21 06:42:42;;;;;;;9.85;7.18;;;22.30;99.90;;;;;;4897530;28;87774;-76
2022/07/21 06:45:08;;;;;;;10.55;7.15;;;22.50;99.90;;;;;;4899675;28;87699;-76
2022/07/21 06:47:33;;;;;;;12.65;6.50;;;22.70;99.90;;;;;;4882824;28;87223;-77
2022/07/21 06:50:02;;;;;;;14.15;7.78;;;23.10;99.90;;;;;;4883285;28;86216;-77
2022/07/21 06:52:29;;;;;;;12.27;7.35;;;23.20;99.90;;;;;;4888310;28;87078;-77
2022/07/21 06:54:55;;;;;;;13.18;8.13;;;22.90;99.90;;;;;;4899605;28;87274;-76
2022/07/21 06:57:21;;;;;;;10.00;6.75;;;22.90;99.90;;;;;;4899074;28;87870;-77
2022/07/21 06:59:47;;;;;;;12.63;7.40;;;22.80;99.90;;;;;;4890824;28;86679;-77
2022/07/21 07:02:13;;;;;;;13.00;7.57;;;22.90;99.90;;;;;;4900106;28;87632;-76
2022/07/21 07:04:38;;;;;;;11.15;7.35;;;22.80;99.90;;;;;;4901740;28;87649;-77
2022/07/21 07:07:04;;;;;;;12.10;7.07;;;23.00;99.90;;;;;;4891783;28;86999;-76
2022/07/21 07:09:31;;;;;;;13.80;7.22;;;22.80;99.90;;;;;;4882911;28;87179;-77
2022/07/21 07:12:03;;;;;;;10.02;6.55;;;23.00;99.90;;;;;;4906895;28;87532;-77
2022/07/21 07:14:33;;;;;;;12.20;7.32;;;23.50;99.90;;;;;;4889024;28;88030;-77
2022/07/21 07:17:01;;;;;;;10.55;6.53;;;23.40;99.90;;;;;;4892651;28;86906;-76
2022/07/21 07:19:27;;;;;;;12.05;6.20;;;23.40;99.90;;;;;;4886666;28;87228;-77
2022/07/21 07:21:53;;;;;;;14.10;6.40;;;23.70;99.90;;;;;;4900473;28;88662;-77
2022/07/21 07:24:19;;;;;;;9.85;6.13;;;23.80;99.90;;;;;;4900770;28;87794;-77
2022/07/21 07:26:45;;;;;;;8.45;5.95;;;23.60;99.90;;;;;;4900172;28;87257;-77
2022/07/21 07:29:10;;;;;;;9.43;5.50;;;23.80;99.90;;;;;;4899030;28;87473;-76
2022/07/21 07:31:37;;;;;;;10.00;6.05;;;23.60;99.90;;;;;;4881987;28;87162;-76
2022/07/21 07:34:03;;;;;;;10.48;5.43;;;23.80;99.50;;;;;;4881723;28;87021;-77
2022/07/21 07:36:29;;;;;;;9.98;6.38;;;23.90;98.30;;;;;;4882364;28;87534;-77
2022/07/21 07:38:56;;;;;;;9.02;5.88;;;24.10;96.60;;;;;;4882681;28;86237;-76
2022/07/21 07:41:24;;;;;;;11.15;6.45;;;24.10;96.60;;;;;;4885370;28;88216;-76
2022/07/21 07:43:51;;;;;;;10.00;6.18;;;23.90;98.90;;;;;;4896327;28;87854;-76
2022/07/21 07:46:18;;;;;;;10.82;5.90;;;23.60;99.90;;;;;;4899926;28;88353;-77
2022/07/21 07:48:44;;;;;;;13.13;6.55;;;23.30;99.90;;;;;;4897709;28;87287;-76
2022/07/21 07:51:11;;;;;;;12.95;7.15;;;23.50;98.60;;;;;;4900350;28;88784;-76
2022/07/21 07:53:37;;;;;;;10.48;6.65;;;23.50;99.30;;;;;;4900899;28;87368;-76
2022/07/21 07:56:03;;;;;;;13.23;6.82;;;23.80;97.40;;;;;;4900670;28;86951;-76
2022/07/21 07:58:29;;;;;;;10.40;6.53;;;23.30;99.10;;;;;;4898120;28;87172;-76
2022/07/21 08:00:55;;;;;;;9.95;6.57;;;23.20;99.90;;;;;;4898919;28;87250;-76
2022/07/21 08:03:21;;;;;;;12.15;5.70;;;23.30;99.90;;;;;;4900849;28;86442;-76
2022/07/21 08:05:47;;;;;;;12.20;6.50;;;23.30;99.90;;;;;;4900370;28;87032;-76
2022/07/21 08:08:14;;;;;;;9.20;6.13;;;23.30;99.30;;;;;;4900945;28;86953;-76
2022/07/21 08:10:40;;;;;;;8.38;5.05;;;23.40;99.20;;;;;;4906478;28;88858;-76
2022/07/21 08:13:05;;;;;;;10.40;5.80;;;23.40;99.80;;;;;;4919297;28;88934;-76
2022/07/21 08:15:31;;;;;;;10.68;5.70;;;23.70;97.00;;;;;;4914494;28;87261;-76
2022/07/21 08:17:57;;;;;;;9.90;5.90;;;23.70;96.50;;;;;;4900062;28;86942;-76
2022/07/21 08:20:23;;;;;;;9.45;5.45;;;23.90;96.90;;;;;;4884756;28;86648;-76
2022/07/21 08:22:48;;;;;;;12.70;5.55;;;24.00;95.50;;;;;;4883925;28;87319;-76
2022/07/21 08:25:14;;;;;;;9.52;6.10;;;23.70;97.40;;;;;;4900337;28;86899;-76
2022/07/21 08:27:42;;;;;;;7.93;5.30;;;23.90;95.30;;;;;;4900849;28;86215;-76
2022/07/21 08:30:08;;;;;;;8.55;4.90;;;23.80;95.40;;;;;;4894209;28;87698;-76
2022/07/21 08:32:34;;;;;;;11.75;4.95;;;23.80;95.50;;;;;;4899923;28;87898;-76
2022/07/21 08:35:00;;;;;;;9.05;4.75;;;23.90;94.60;;;;;;4899601;28;88312;-76
2022/07/21 08:37:26;;;;;;;7.95;5.10;;;23.70;93.90;;;;;;4900230;28;87505;-76
2022/07/21 08:39:51;;;;;;;7.50;4.60;;;23.60;93.80;;;;;;4884301;28;88905;-76
2022/07/21 08:42:17;;;;;;;11.18;5.68;;;23.60;93.20;;;;;;4884551;28;87200;-76
2022/07/21 08:44:43;;;;;;;10.07;4.93;;;23.10;93.60;;;;;;4886210;28;86899;-76
2022/07/21 08:47:09;;;;;;;6.88;4.28;;;22.90;94.00;;;;;;4887785;28;86916;-79
2022/07/21 08:49:35;;;;;;;10.48;4.70;;;23.10;94.00;;;;;;4903311;28;88029;-81
2022/07/21 08:52:01;;;;;;;8.43;4.80;;;23.10;93.90;;;;;;4903691;28;86187;-80
2022/07/21 08:54:27;;;;;;;10.20;4.00;;;23.20;93.40;;;;;;4903799;28;87001;-80
2022/07/21 08:56:54;;;;;;;8.60;4.47;;;23.30;94.40;;;;;;4902852;28;87073;-81
2022/07/21 08:59:22;;;;;;;7.88;4.40;;;23.40;92.90;;;;;;4900981;28;88349;-80
2022/07/21 09:01:48;;;;;;;8.30;4.13;;;23.40;92.40;;;;;;4902467;28;87924;-80
2022/07/21 09:04:32;;;;;;;10.70;4.70;;;23.50;92.60;;;;;;4903658;28;86990;-81
2022/07/21 09:07:01;;;;;;;6.80;4.25;;;23.60;91.60;;;;;;4901470;28;86936;-81
2022/07/21 09:09:28;;;;;;;9.80;5.22;;;23.80;90.60;;;;;;4884218;28;88037;-81
2022/07/21 09:11:56;;;;;;;7.90;4.15;;;24.00;91.10;;;;;;4889756;28;87130;-81
2022/07/21 09:14:28;;;;;;;7.32;3.85;;;24.40;89.10;;;;;;4886977;28;87165;-81
2022/07/21 09:16:59;;;;;;;7.10;3.70;;;24.50;86.90;;;;;;4903559;28;86125;-80
2022/07/21 09:19:31;;;;;;;8.30;4.13;;;24.80;89.10;;;;;;4891198;28;88730;-81
2022/07/21 09:21:59;;;;;;;7.95;4.78;;;24.80;86.80;;;;;;4892356;28;87423;-80
2022/07/21 09:24:46;;;;;;;5.85;3.65;;;25.00;85.20;;;;;;4895591;28;88415;-81
2022/07/21 09:27:16;;;;;;;12.05;4.15;;;25.40;84.70;;;;;;4903627;28;87213;-81
2022/07/21 09:29:46;;;;;;;8.27;4.13;;;25.60;80.20;;;;;;4900584;28;87445;-79
2022/07/21 09:32:22;;;;;;;8.20;4.45;;;25.70;82.60;;;;;;4902730;28;87340;-82
2022/07/21 09:34:50;;;;;;;11.13;4.65;;;25.80;80.00;;;;;;4893917;28;86988;-81
2022/07/21 09:37:17;;;;;;;8.32;4.35;;;25.90;79.30;;;;;;4886744;28;87281;-82
2022/07/21 09:39:42;;;;;;;7.72;4.32;;;25.80;82.00;;;;;;4901407;28;86942;-79
2022/07/21 09:42:17;;;;;;;5.63;3.80;;;26.00;78.10;;;;;;4899870;28;88049;-79
2022/07/21 09:44:49;;;;;;;8.80;4.03;;;26.00;81.10;;;;;;4895990;28;86860;-80
2022/07/21 09:47:17;;;;;;;6.88;4.43;;;25.90;76.70;;;;;;4897491;28;86904;-80
2022/07/21 09:49:43;;;;;;;6.60;4.20;;;25.80;77.30;;;;;;4898943;28;88380;-82
2022/07/21 09:52:30;;;;;;;8.32;4.88;;;25.90;79.50;;;;;;4900416;28;87704;-79
2022/07/21 09:55:01;;;;;;;11.77;4.93;;;25.90;77.70;;;;;;4899508;28;87135;-80
2022/07/21 09:57:28;;;;;;;7.65;4.80;;;25.90;79.60;;;;;;4894372;28;86941;-81
2022/07/21 09:59:54;;;;;;;8.85;4.72;;;26.40;78.40;;;;;;4904637;28;87249;-80
2022/07/21 10:02:28;;;;;;;8.35;4.75;;;26.60;76.90;;;;;;4900670;28;87382;-80
2022/07/21 10:05:12;;;;;;;7.38;4.57;;;26.90;74.70;;;;;;4901995;28;87033;-81
2022/07/21 10:07:41;;;;;;;7.85;4.60;;;27.10;72.70;;;;;;4904787;28;86835;-80
2022/07/21 10:10:07;;;;;;;;;;;27.60;71.40;;;;;;4904213;28;87748;-79
2022/07/21 10:12:33;;;;;;;6.80;4.13;;;27.70;71.80;;;;;;4924544;28;87354;-80
2022/07/21 10:14:59;;;;;;;7.00;4.63;;;28.10;69.60;;;;;;4914981;28;88088;-80
2022/07/21 10:17:26;;;;;;;8.80;4.47;;;28.20;69.50;;;;;;4903887;28;87276;-80
2022/07/21 10:20:12;;;;;;;13.07;5.05;;;28.30;70.60;;;;;;4903140;28;87263;-80
2022/07/21 10:22:52;;;;;;;9.00;4.97;;;28.50;67.00;;;;;;4902146;28;87526;-80
2022/07/21 10:25:18;;;;;;;10.30;5.50;;;28.30;67.40;;;;;;4900783;28;87162;-81
2022/07/21 10:28:23;;;;;;;9.18;5.40;;;28.50;66.70;;;;;;4903772;28;87066;-80
2022/07/21 10:30:54;;;;;;;10.95;6.00;;;28.40;67.70;;;;;;4893350;28;86764;-79
2022/07/21 10:33:40;;;;;;;8.27;5.70;;;27.90;66.90;;;;;;4899470;28;86955;-80
2022/07/21 10:36:06;;;;;;;9.75;5.47;;;27.00;68.20;;;;;;4901545;28;86916;-80
2022/07/21 10:38:34;;;;;;;9.77;6.22;;;26.90;68.60;;;;;;4902253;28;87119;-79
2022/07/21 10:41:03;;;;;;;8.48;5.03;;;27.00;67.10;;;;;;4902445;28;88091;-78
2022/07/21 10:43:28;;;;;;;8.43;4.85;;;27.00;69.30;;;;;;4890872;28;87636;-79
2022/07/21 10:45:55;;;;;;;6.75;4.85;;;27.30;69.50;;;;;;4886844;28;87116;-79
2022/07/21 10:48:42;;;;;;;7.32;5.07;;;28.30;66.90;;;;;;4886701;28;86558;-79
2022/07/21 10:51:11;;;;;;;8.77;5.20;;;28.40;65.90;;;;;;4885725;28;88330;-79
2022/07/21 10:53:37;;;;;;;7.70;5.60;;;28.20;65.50;;;;;;4886115;28;87373;-79
2022/07/21 10:56:03;;;;;;;7.55;5.40;;;27.60;66.90;;;;;;4885844;28;86995;-79
2022/07/21 10:58:36;;;;;;;9.68;5.20;;;27.50;69.30;;;;;;4885851;28;86177;-79
2022/07/21 11:01:06;;;;;;;8.05;4.93;;;28.00;68.00;;;;;;4902298;28;87055;-79
2022/07/21 11:04:10;;;;;;;8.10;4.90;;;27.60;66.70;;;;;;4903088;28;87220;-79
2022/07/21 11:06:38;;;;;;;7.05;5.35;;;27.60;65.80;;;;;;4901798;28;87956;-79
2022/07/21 11:09:03;;;;;;;8.10;4.72;;;28.30;67.30;;;;;;4903770;28;87149;-80
2022/07/21 11:11:34;;;;;;;6.18;4.45;;;29.10;63.90;;;;;;4916405;28;88213;-80
2022/07/21 11:14:00;;;;;;;6.40;4.15;;;29.90;63.70;;;;;;4905037;28;87893;-80
2022/07/21 11:16:46;;;;;;;7.53;4.00;;;30.10;63.70;;;;;;4904323;28;87210;-80
2022/07/21 11:19:35;;;;;;;6.40;4.38;;;30.20;60.50;;;;;;4901726;28;87473;-79
2022/07/21 11:22:09;;;;;;;10.15;4.70;;;28.90;62.60;;;;;;4903839;28;88551;-80
2022/07/21 11:24:35;;;;;;;6.88;4.45;;;28.40;63.40;;;;;;4903807;28;86432;-79
2022/07/21 11:27:03;;;;;;;7.57;4.40;;;28.40;63.60;;;;;;4902268;28;86864;-79
2022/07/21 11:29:29;;;;;;;9.57;5.20;;;28.00;61.90;;;;;;4902321;28;87217;-79
2022/07/21 11:31:56;;;;;;;6.30;3.60;;;27.70;63.90;;;;;;4895152;28;88349;-79
2022/07/21 11:34:23;;;;;;;9.75;4.28;;;28.20;65.50;;;;;;4902585;28;88414;-79
2022/07/21 11:36:58;;;;;;;6.78;4.07;;;28.50;62.50;;;;;;4903679;28;87411;-82
2022/07/21 11:39:25;;;;;;;7.35;3.85;;;28.60;65.00;;;;;;4903054;28;87335;-80
2022/07/21 11:41:51;;;;;;;7.90;4.05;;;28.70;64.10;;;;;;4897476;28;87310;-81
2022/07/21 11:44:24;;;;;;;7.32;4.43;;;28.90;62.80;;;;;;4903389;28;87052;-82
2022/07/21 11:46:56;;;;;;;5.57;4.03;;;28.60;63.80;;;;;;4896521;28;87230;-80
2022/07/21 11:49:23;;;;;;;7.32;4.72;;;28.50;64.40;;;;;;4895909;28;86258;-80
2022/07/21 11:51:55;;;;;;;8.57;4.05;;;28.30;65.00;;;;;;4899731;28;87200;-80
2022/07/21 11:54:45;;;;;;;5.95;3.78;;;28.60;63.30;;;;;;4903388;28;86925;-81
2022/07/21 11:57:11;;;;;;;6.78;3.78;;;28.60;65.20;;;;;;4883968;28;88343;-79
2022/07/21 11:59:40;;;;;;;6.18;4.18;;;28.50;65.80;;;;;;4900245;28;88016;-80
2022/07/21 12:02:09;;;;;;;;;;;28.90;63.80;;;;;;4888138;28;87217;-80
2022/07/21 12:04:46;;;;;;;6.22;3.88;;;29.30;62.40;;;;;;4891493;28;86602;-81
2022/07/21 12:07:31;;;;;;;5.82;3.42;;;29.00;63.20;;;;;;4899710;28;86992;-79
2022/07/21 12:10:03;;;;;;;6.55;4.13;;;29.10;61.20;;;;;;4893146;28;87041;-78
2022/07/21 12:12:41;;;;;;;8.50;4.35;;;28.40;64.80;;;;;;4920368;28;87303;-79
2022/07/21 12:15:22;;;;;;;5.88;3.70;;;28.50;63.50;;;;;;4919661;28;86270;-80
2022/07/21 12:17:52;;;;;;;6.07;3.97;;;28.70;64.80;;;;;;4916630;28;86591;-80
2022/07/21 12:20:27;;;;;;;6.03;3.88;;;28.70;65.40;;;;;;4900384;28;87467;-80
2022/07/21 12:22:54;;;;;;;4.70;3.33;;;28.60;65.00;;;;;;4881134;28;89292;-78
2022/07/21 12:25:32;;;;;;;6.47;4.15;;;29.00;62.90;;;;;;4897415;28;88405;-81
2022/07/21 12:27:57;;;;;;;7.28;3.97;;;28.50;65.40;;;;;;4901062;28;87073;-78
2022/07/21 12:30:44;;;;;;;6.85;4.05;;;28.60;61.40;;;;;;4900944;28;87028;-78
2022/07/21 12:33:15;;;;;;;6.47;4.38;;;28.30;64.70;;;;;;4900651;28;87477;-81
2022/07/21 12:35:43;;;;;;;7.72;4.70;;;28.50;62.90;;;;;;4900124;28;86960;-80
2022/07/21 12:38:14;;;;;;;6.88;4.20;;;28.70;62.40;;;;;;4901073;28;87314;-79
2022/07/21 12:40:50;;;;;;;6.57;4.40;;;28.70;64.40;;;;;;4900947;28;86356;-80
2022/07/21 12:43:18;;;;;;;6.30;4.40;;;28.70;63.90;;;;;;4900419;28;87355;-80
2022/07/21 12:45:57;;;;;;;8.75;4.45;;;28.70;63.00;;;;;;4900143;28;87871;-79
2022/07/21 12:48:31;;;;;;;5.78;4.13;;;28.60;62.60;;;;;;4899686;28;88289;-79
2022/07/21 12:51:19;;;;;;;7.03;4.38;;;28.90;63.00;;;;;;4900714;28;87396;-79
2022/07/21 12:53:52;;;;;;;7.10;4.07;;;28.80;64.10;;;;;;4899546;28;87242;-78
2022/07/21 12:56:23;;;;;;;8.98;5.68;;;28.30;66.40;;;;;;4900279;28;87384;-80
2022/07/21 12:58:50;;;;;;;6.32;4.10;;;28.20;68.40;;;;;;4893939;28;87071;-81
2022/07/21 13:01:18;;;;;;;6.38;4.05;;;28.20;66.50;;;;;;4881466;28;86963;-78
2022/07/21 13:03:44;;;;;;;6.25;4.22;;;28.40;63.90;;;;;;4880788;28;87403;-78
2022/07/21 13:06:10;;;;;;;9.38;4.22;;;28.50;66.90;;;;;;4881595;28;86343;-83
2022/07/21 13:08:38;;;;;;;9.15;4.25;;;28.40;63.70;;;;;;4888586;28;86991;-80
2022/07/21 13:11:04;;;;;;;6.60;4.22;;;27.60;62.70;;;;;;4911120;28;87405;-78
2022/07/21 13:13:31;;;;;;;7.88;4.03;;;27.60;64.60;;;;;;4918583;28;88756;-81
2022/07/21 13:15:57;;;;;;;7.13;4.30;;;28.00;64.20;;;;;;4919115;28;88216;-78
2022/07/21 13:18:23;;;;;;;7.75;4.68;;;28.60;62.60;;;;;;4913984;28;87179;-79
2022/07/21 13:20:51;;;;;;;7.55;4.18;;;28.80;60.00;;;;;;4900256;28;87449;-80
2022/07/21 13:23:17;;;;;;;9.40;4.72;;;28.20;60.60;;;;;;4900484;28;87261;-78
2022/07/21 13:25:44;;;;;;;7.80;4.18;;;27.90;61.20;;;;;;4899826;28;87841;-78
2022/07/21 13:28:09;;;;;;;7.38;4.10;;;27.60;62.20;;;;;;4900243;28;86918;-78
2022/07/21 13:30:35;;;;;;;7.32;4.10;;;28.00;62.40;;;;;;4900676;28;85857;-77
2022/07/21 13:33:01;;;;;;;7.90;4.20;;;28.20;62.20;;;;;;4899180;28;87037;-77
2022/07/21 13:35:27;;;;;;;8.20;4.03;;;28.10;61.40;;;;;;4899898;28;86999;-79
2022/07/21 13:37:54;;;;;;;8.07;4.47;;;28.00;61.60;;;;;;4899557;28;87924;-80
2022/07/21 13:40:19;;;;;;;8.15;4.38;;;27.90;62.30;;;;;;4900143;28;87001;-81
2022/07/21 13:42:45;;;;;;;6.18;3.60;;;27.90;63.00;;;;;;4899784;28;87198;-78
2022/07/21 13:45:14;;;;;;;8.57;4.45;;;27.80;60.80;;;;;;4899417;28;87438;-78
2022/07/21 13:47:39;;;;;;;6.25;4.18;;;27.60;62.70;;;;;;4899336;28;87363;-77
2022/07/21 13:50:05;;;;;;;7.55;4.28;;;27.50;62.40;;;;;;4899806;28;86995;-78
2022/07/21 13:52:32;;;;;;;6.35;4.65;;;27.10;63.50;;;;;;4899553;28;87205;-78
2022/07/21 13:54:58;;;;;;;5.15;3.90;;;27.50;63.60;;;;;;4899871;28;87397;-80
2022/07/21 13:57:24;;;;;;;7.10;4.47;;;27.70;63.00;;;;;;4900215;28;86737;-80
2022/07/21 13:59:49;;;;;;;7.28;3.88;;;27.80;63.60;;;;;;4899994;28;87342;-79
2022/07/21 14:02:16;;;;;;;6.10;4.13;;;27.80;63.50;;;;;;4898193;28;89547;-78
2022/07/21 14:04:42;;;;;;;5.15;3.55;;;28.10;60.20;;;;;;4880937;28;88443;-79
2022/07/21 14:07:07;;;;;;;7.80;4.57;;;28.00;59.80;;;;;;4880575;28;87419;-77
2022/07/21 14:09:33;;;;;;;5.85;4.28;;;27.90;62.20;;;;;;4880625;28;87024;-79
2022/07/21 14:11:59;;;;;;;6.32;3.75;;;28.00;62.20;;;;;;4915357;28;87537;-79
2022/07/21 14:14:26;;;;;;;7.75;4.20;;;27.90;62.50;;;;;;4900409;28;87142;-79
2022/07/21 14:16:56;;;;;;;9.00;4.57;;;28.10;61.30;;;;;;4895411;28;87003;-79
2022/07/21 14:19:22;;;;;;;7.28;4.20;;;28.00;62.10;;;;;;4898761;28;86423;-78
2022/07/21 14:21:48;;;;;;;6.65;4.15;;;28.00;61.20;;;;;;4899455;28;86844;-78
2022/07/21 14:26:59;;;;;;;6.78;4.32;;;28.20;58.90;;;;;;4897638;28;88378;-78
2022/07/21 14:29:25;;;;;;;5.70;3.65;;;28.10;60.60;;;;;;4899283;28;87118;-79
2022/07/21 14:31:50;;;;;;;5.65;3.47;;;28.00;58.20;;;;;;4899000;28;88161;-78
2022/07/21 14:34:16;;;;;;;7.50;3.28;;;28.00;56.90;;;;;;4899097;28;88170;-79
2022/07/21 14:36:42;;;;;;;11.48;3.55;;;27.80;58.20;;;;;;4897181;28;87116;-79
2022/07/21 14:39:08;;;;;;;9.13;3.35;;;27.90;58.80;;;;;;4898880;28;86922;-77
2022/07/21 14:41:34;;;;;;;6.20;3.25;;;28.00;58.40;;;;;;4899460;28;86987;-79
2022/07/21 14:44:00;;;;;;;6.32;3.63;;;28.00;58.80;;;;;;4899629;28;86657;-77
2022/07/21 14:46:26;;;;;;;7.10;3.53;;;28.30;57.70;;;;;;4901792;28;86933;-81
2022/07/21 14:48:51;;;;;;;7.88;3.53;;;28.60;58.70;;;;;;4899543;28;86975;-77
2022/07/21 14:51:17;;;;;;;7.25;3.17;;;28.50;58.60;;;;;;4889462;28;87893;-78
2022/07/21 14:53:43;;;;;;;5.85;3.22;;;28.60;58.10;;;;;;4889229;28;87823;-80
2022/07/21 14:56:09;;;;;;;4.95;3.20;;;29.00;56.90;;;;;;4885425;28;86974;-80
2022/07/21 14:58:35;;;;;;;7.03;3.55;;;29.10;56.40;;;;;;4874373;28;87221;-78
2022/07/21 15:01:01;;;;;;;6.15;3.90;;;29.10;56.50;;;;;;4896490;28;87083;-79
2022/07/21 15:03:26;;;;;;;6.28;3.78;;;28.90;56.20;;;;;;4885114;28;87508;-79
2022/07/21 15:05:53;;;;;;;6.10;3.20;;;28.60;58.00;;;;;;4891572;28;87116;-78
2022/07/21 15:08:19;;;;;;;6.10;3.60;;;28.40;58.30;;;;;;4899090;28;86724;-80
2022/07/21 15:10:46;;;;;;;5.25;3.17;;;28.30;59.60;;;;;;4895650;28;88062;-78
2022/07/21 15:13:12;;;;;;;5.82;3.33;;;28.40;58.10;;;;;;4901336;28;87338;-79
2022/07/21 15:15:38;;;;;;;7.00;3.78;;;28.50;58.10;;;;;;4900109;28;88331;-79
2022/07/21 15:18:04;;;;;;;7.53;3.30;;;28.30;59.70;;;;;;4889195;28;87039;-78
2022/07/21 15:20:30;;;;;;;5.38;3.63;;;28.40;59.90;;;;;;4885671;28;87133;-78
2022/07/21 15:22:55;;;;;;;5.90;3.55;;;28.30;57.90;;;;;;4882715;28;88697;-78
2022/07/21 15:25:21;;;;;;;7.70;3.70;;;28.00;58.80;;;;;;4898758;28;86878;-80
2022/07/21 15:27:47;;;;;;;6.40;3.72;;;27.70;58.30;;;;;;4898279;28;86955;-77
2022/07/21 15:30:14;;;;;;;5.90;3.47;;;27.70;60.20;;;;;;4893624;28;87093;-78
2022/07/21 15:32:40;;;;;;;5.78;3.10;;;27.50;60.90;;;;;;4897723;28;86362;-79
2022/07/21 15:35:07;;;;;;;8.00;4.07;;;27.50;61.50;;;;;;4886916;28;86981;-78
2022/07/21 15:37:34;;;;;;;5.70;3.13;;;27.70;60.60;;;;;;4897931;28;87225;-81